Terminal Aerodrome Forecast
Issued by NWS

Home | Current Version | Previous Version | Text Only | Print | Product List | Glossary On
Versions: 1 2 3 4 5 6 7 8 9 10 11 12 13 14 15 16 17 18 19 20 21
745
FTUS44 KOHX 220526
TAFCKV
TAF
KCKV 220526Z 2206/2306 17014KT P6SM BKN070 BKN120
     FM221330 18018KT 4SM SHRA BKN025 OVC050
      TEMPO 2214/2218 18020G30KT 1SM +TSRA OVC008CB
     FM221900 21014KT P6SM VCSH BKN020
     FM230000 23013KT P6SM SCT035=

USA.gov is the U.S. government's official web portal to all federal, state and local government web resources and services.